Wetterdaten: Woche 25.04.11 - 01.05.11 (KW17)
Datum Zeit Temperatur Luftfeuchte Luftdruck Niederschlag Windrichtung Sonnenschein Solar Wind
25.04.2011 00:00 11,1 C 88 % 1014,7 hPa 0,0 l/m N 0,00 h 0 W/m 2,4 km/h (1 Bft)
25.04.2011 01:00 11,1 C 86 % 1014,4 hPa 0,0 l/m N 0,00 h 0 W/m 3,7 km/h (1 Bft)
25.04.2011 02:00 10,9 C 84 % 1014,2 hPa 0,0 l/m N-NW 0,00 h 0 W/m 5,7 km/h (1 Bft)
25.04.2011 03:00 10,0 C 84 % 1014,1 hPa 0,0 l/m N-NW 0,00 h 0 W/m 5,1 km/h (1 Bft)
25.04.2011 04:00 9,5 C 80 % 1014,3 hPa 0,0 l/m N-NW 0,00 h 0 W/m 6,4 km/h (2 Bft)
25.04.2011 05:00 8,9 C 78 % 1014,4 hPa 0,0 l/m N-NW 0,00 h 0 W/m 5,3 km/h (1 Bft)
25.04.2011 06:00 7,8 C 81 % 1014,7 hPa 0,0 l/m N-NW 0,08 h 18 W/m 4,5 km/h (1 Bft)
25.04.2011 07:00 8,8 C 76 % 1015,3 hPa 0,0 l/m N-NW 0,75 h 124 W/m 3,3 km/h (1 Bft)
25.04.2011 08:00 10,5 C 70 % 1015,4 hPa 0,0 l/m N-NW 1,00 h 317 W/m 6,0 km/h (2 Bft)
25.04.2011 09:00 13,2 C 66 % 1015,3 hPa 0,0 l/m NO 1,00 h 558 W/m 11,0 km/h (2 Bft)
25.04.2011 10:00 15,0 C 61 % 1015,2 hPa 0,0 l/m O-NO 1,00 h 690 W/m 15,0 km/h (3 Bft)
25.04.2011 11:00 16,2 C 55 % 1015,3 hPa 0,0 l/m NO 1,00 h 821 W/m 18,4 km/h (3 Bft)
25.04.2011 12:00 18,0 C 50 % 1014,8 hPa 0,0 l/m O-NO 1,00 h 859 W/m 17,8 km/h (3 Bft)
25.04.2011 13:00 19,3 C 45 % 1014,4 hPa 0,0 l/m NO 0,83 h 747 W/m 19,7 km/h (3 Bft)
25.04.2011 14:00 19,8 C 40 % 1014,0 hPa 0,0 l/m O-NO 1,00 h 772 W/m 18,5 km/h (3 Bft)
25.04.2011 15:00 20,1 C 37 % 1013,5 hPa 0,0 l/m NO 1,00 h 712 W/m 20,2 km/h (4 Bft)
25.04.2011 16:00 20,1 C 34 % 1013,2 hPa 0,0 l/m NO 1,00 h 574 W/m 19,8 km/h (4 Bft)
25.04.2011 17:00 20,0 C 31 % 1013,2 hPa 0,0 l/m O-NO 1,00 h 424 W/m 18,6 km/h (3 Bft)
25.04.2011 18:00 19,2 C 30 % 1013,3 hPa 0,0 l/m NO 1,00 h 241 W/m 18,0 km/h (3 Bft)
25.04.2011 19:00 17,8 C 33 % 1013,3 hPa 0,0 l/m O-NO 0,25 h 63 W/m 14,9 km/h (3 Bft)
25.04.2011 20:00 16,0 C 38 % 1013,8 hPa 0,0 l/m O-NO 0,00 h 9 W/m 11,0 km/h (2 Bft)
25.04.2011 21:00 14,6 C 41 % 1014,3 hPa 0,0 l/m NO 0,00 h 0 W/m 14,6 km/h (3 Bft)
25.04.2011 22:00 13,3 C 46 % 1014,8 hPa 0,0 l/m NO 0,00 h 0 W/m 13,2 km/h (3 Bft)
25.04.2011 23:00 11,6 C 54 % 1015,1 hPa 0,0 l/m NO 0,00 h 0 W/m 6,3 km/h (2 Bft)
26.04.2011 00:00 9,6 C 65 % 1015,2 hPa 0,0 l/m N-NW 0,00 h 0 W/m 2,5 km/h (1 Bft)
26.04.2011 01:00 8,7 C 68 % 1015,1 hPa 0,0 l/m N 0,00 h 0 W/m 6,3 km/h (2 Bft)
26.04.2011 02:00 8,0 C 72 % 1014,7 hPa 0,0 l/m N 0,00 h 0 W/m 6,4 km/h (2 Bft)
26.04.2011 03:00 7,3 C 75 % 1014,6 hPa 0,0 l/m N 0,00 h 0 W/m 7,5 km/h (2 Bft)
26.04.2011 04:00 6,7 C 79 % 1014,5 hPa 0,0 l/m N-NO 0,00 h 0 W/m 6,4 km/h (2 Bft)
26.04.2011 05:00 6,0 C 82 % 1014,5 hPa 0,0 l/m N-NO 0,00 h 0 W/m 6,7 km/h (2 Bft)
26.04.2011 06:00 5,6 C 85 % 1014,8 hPa 0,0 l/m N-NO 0,08 h 20 W/m 4,8 km/h (1 Bft)
26.04.2011 07:00 6,3 C 83 % 1015,1 hPa 0,0 l/m N-NW 0,92 h 152 W/m 5,6 km/h (1 Bft)
26.04.2011 08:00 8,4 C 78 % 1015,3 hPa 0,0 l/m O-NO 1,00 h 342 W/m 8,9 km/h (2 Bft)
26.04.2011 09:00 10,6 C 70 % 1015,2 hPa 0,0 l/m NO 1,00 h 531 W/m 13,0 km/h (3 Bft)
26.04.2011 10:00 12,4 C 63 % 1015,1 hPa 0,0 l/m NO 1,00 h 709 W/m 16,4 km/h (3 Bft)
26.04.2011 11:00 13,6 C 56 % 1015,0 hPa 0,0 l/m NO 0,92 h 762 W/m 16,1 km/h (3 Bft)
26.04.2011 12:00 14,4 C 53 % 1014,9 hPa 0,0 l/m NO 0,67 h 689 W/m 16,0 km/h (3 Bft)
26.04.2011 13:00 14,6 C 51 % 1014,6 hPa 0,0 l/m O-NO 0,33 h 508 W/m 15,7 km/h (3 Bft)
26.04.2011 14:00 15,7 C 46 % 1014,3 hPa 0,0 l/m NO 0,75 h 694 W/m 18,2 km/h (3 Bft)
26.04.2011 15:00 16,2 C 44 % 1014,0 hPa 0,0 l/m NO 0,67 h 586 W/m 17,2 km/h (3 Bft)
26.04.2011 16:00 16,3 C 46 % 1013,5 hPa 0,0 l/m N-NO 0,58 h 384 W/m 16,9 km/h (3 Bft)
26.04.2011 17:00 16,3 C 45 % 1013,2 hPa 0,0 l/m NO 0,92 h 378 W/m 14,0 km/h (3 Bft)
26.04.2011 18:00 15,5 C 47 % 1013,3 hPa 0,0 l/m N-NO 0,58 h 171 W/m 16,1 km/h (3 Bft)
26.04.2011 19:00 13,9 C 56 % 1013,6 hPa 0,0 l/m NO 0,00 h 28 W/m 11,8 km/h (2 Bft)
26.04.2011 20:00 12,9 C 59 % 1014,1 hPa 0,0 l/m O-NO 0,25 h 16 W/m 7,6 km/h (2 Bft)
26.04.2011 21:00 11,1 C 68 % 1014,3 hPa 0,0 l/m N 0,00 h 0 W/m 1,6 km/h (1 Bft)
26.04.2011 22:00 10,3 C 74 % 1014,3 hPa 0,0 l/m N 0,00 h 0 W/m 0,5 km/h (0 Bft)
26.04.2011 23:00 10,2 C 76 % 1013,9 hPa 0,0 l/m N 0,00 h 0 W/m 0,1 km/h (0 Bft)
27.04.2011 00:00 9,8 C 77 % 1013,6 hPa 0,0 l/m N-NO 0,00 h 0 W/m 3,3 km/h (1 Bft)
27.04.2011 01:00 9,1 C 80 % 1013,2 hPa 0,0 l/m N-NW 0,00 h 0 W/m 4,0 km/h (1 Bft)
27.04.2011 02:00 9,2 C 80 % 1012,8 hPa 0,0 l/m N 0,00 h 0 W/m 1,6 km/h (1 Bft)
27.04.2011 03:00 9,1 C 81 % 1012,5 hPa 0,0 l/m N-NW 0,00 h 0 W/m 3,5 km/h (1 Bft)
27.04.2011 04:00 9,1 C 81 % 1012,2 hPa 0,0 l/m N-NW 0,00 h 0 W/m 5,2 km/h (1 Bft)
27.04.2011 05:00 9,0 C 82 % 1012,0 hPa 0,0 l/m W-NW 0,00 h 0 W/m 2,7 km/h (1 Bft)
27.04.2011 06:00 8,6 C 86 % 1012,2 hPa 0,0 l/m N 0,00 h 6 W/m 0,9 km/h (0 Bft)
27.04.2011 07:00 8,7 C 87 % 1012,4 hPa 0,0 l/m N 0,00 h 29 W/m 1,3 km/h (1 Bft)
27.04.2011 08:00 9,4 C 86 % 1012,5 hPa 0,0 l/m W 0,00 h 41 W/m 2,3 km/h (1 Bft)
27.04.2011 09:00 10,0 C 84 % 1012,6 hPa 0,0 l/m W 0,00 h 91 W/m 3,6 km/h (1 Bft)
27.04.2011 10:00 10,8 C 75 % 1012,8 hPa 0,0 l/m N 0,00 h 112 W/m 7,0 km/h (2 Bft)
27.04.2011 11:00 10,4 C 77 % 1012,9 hPa 0,0 l/m NO 0,00 h 93 W/m 9,1 km/h (2 Bft)
27.04.2011 12:00 10,9 C 76 % 1012,8 hPa 0,0 l/m N-NO 0,00 h 180 W/m 5,9 km/h (2 Bft)
27.04.2011 13:00 11,4 C 71 % 1012,6 hPa 0,0 l/m N-NO 0,00 h 148 W/m 8,9 km/h (2 Bft)
27.04.2011 14:00 12,6 C 64 % 1012,3 hPa 0,0 l/m O-NO 0,00 h 266 W/m 7,6 km/h (2 Bft)
27.04.2011 15:00 11,9 C 75 % 1012,2 hPa 0,0 l/m SW 0,00 h 140 W/m 12,8 km/h (3 Bft)
27.04.2011 16:00 12,3 C 73 % 1012,1 hPa 0,0 l/m SW 0,33 h 308 W/m 10,1 km/h (2 Bft)
27.04.2011 17:00 12,7 C 65 % 1011,9 hPa 0,0 l/m S-SW 0,08 h 138 W/m 5,6 km/h (1 Bft)
27.04.2011 18:00 12,2 C 72 % 1012,0 hPa 0,0 l/m S-SW 0,00 h 31 W/m 9,7 km/h (2 Bft)
27.04.2011 19:00 10,7 C 84 % 1012,2 hPa 0,0 l/m S-SW 0,00 h 12 W/m 5,3 km/h (1 Bft)
27.04.2011 20:00 10,4 C 84 % 1012,5 hPa 0,0 l/m O-SO 0,00 h 5 W/m 1,9 km/h (1 Bft)
27.04.2011 21:00 9,8 C 85 % 1012,6 hPa 0,0 l/m N 0,00 h 0 W/m 2,0 km/h (1 Bft)
27.04.2011 22:00 7,8 C 91 % 1012,6 hPa 0,0 l/m N 0,00 h 0 W/m 0,1 km/h (0 Bft)
27.04.2011 23:00 6,8 C 94 % 1012,6 hPa 0,0 l/m N 0,00 h 0 W/m 0,9 km/h (0 Bft)
28.04.2011 00:00 6,3 C 94 % 1012,4 hPa 0,0 l/m N 0,00 h 0 W/m 0,8 km/h (0 Bft)
28.04.2011 01:00 5,8 C 95 % 1012,2 hPa 0,0 l/m N 0,00 h 0 W/m 0,1 km/h (0 Bft)
28.04.2011 02:00 4,9 C 95 % 1011,8 hPa 0,0 l/m N 0,00 h 0 W/m 0,0 km/h (0 Bft)
28.04.2011 03:00 4,1 C 95 % 1011,6 hPa 0,0 l/m N 0,00 h 0 W/m 0,7 km/h (0 Bft)
28.04.2011 04:00 3,2 C 96 % 1011,6 hPa 0,0 l/m N 0,00 h 0 W/m 0,8 km/h (0 Bft)
28.04.2011 05:00 4,9 C 97 % 1011,6 hPa 0,0 l/m O 0,00 h 0 W/m 2,4 km/h (1 Bft)
28.04.2011 06:00 5,4 C 98 % 1011,7 hPa 0,0 l/m O-NO 0,00 h 10 W/m 4,8 km/h (1 Bft)
28.04.2011 07:00 5,8 C 98 % 1011,7 hPa 0,0 l/m O-NO 0,00 h 33 W/m 5,1 km/h (1 Bft)
28.04.2011 08:00 6,3 C 99 % 1011,9 hPa 0,0 l/m NO 0,00 h 64 W/m 5,2 km/h (1 Bft)
28.04.2011 09:00 7,2 C 99 % 1012,0 hPa 0,2 l/m NO 0,00 h 119 W/m 6,6 km/h (2 Bft)
28.04.2011 10:00 9,3 C 92 % 1011,9 hPa 0,0 l/m NO 0,58 h 501 W/m 9,3 km/h (2 Bft)
28.04.2011 11:00 12,3 C 76 % 1011,3 hPa 0,0 l/m O-NO 1,00 h 837 W/m 12,4 km/h (3 Bft)
28.04.2011 12:00 14,6 C 67 % 1010,6 hPa 0,0 l/m NO 1,00 h 892 W/m 14,9 km/h (3 Bft)
28.04.2011 13:00 16,3 C 58 % 1009,8 hPa 0,0 l/m NO 1,00 h 891 W/m 15,7 km/h (3 Bft)
28.04.2011 14:00 17,4 C 52 % 1009,3 hPa 0,0 l/m O 0,75 h 678 W/m 16,9 km/h (3 Bft)
28.04.2011 15:00 17,9 C 52 % 1008,8 hPa 0,0 l/m O 0,83 h 638 W/m 19,6 km/h (3 Bft)
28.04.2011 16:00 17,4 C 55 % 1008,4 hPa 0,0 l/m O-NO 0,67 h 452 W/m 19,8 km/h (4 Bft)
28.04.2011 17:00 17,0 C 56 % 1008,2 hPa 0,0 l/m NO 0,58 h 276 W/m 18,2 km/h (3 Bft)
28.04.2011 18:00 16,3 C 59 % 1008,1 hPa 0,0 l/m O-NO 0,00 h 105 W/m 17,4 km/h (3 Bft)
28.04.2011 19:00 15,2 C 62 % 1008,3 hPa 0,0 l/m O-NO 0,00 h 49 W/m 13,2 km/h (3 Bft)
28.04.2011 20:00 14,1 C 67 % 1008,4 hPa 0,0 l/m O-NO 0,08 h 12 W/m 7,9 km/h (2 Bft)
28.04.2011 21:00 13,4 C 69 % 1009,0 hPa 0,0 l/m O-SO 0,00 h 0 W/m 13,1 km/h (3 Bft)
28.04.2011 22:00 12,3 C 71 % 1008,7 hPa 0,0 l/m N 0,00 h 0 W/m 2,1 km/h (1 Bft)
28.04.2011 23:00 10,8 C 79 % 1008,4 hPa 0,0 l/m S-SO 0,00 h 0 W/m 1,9 km/h (1 Bft)
29.04.2011 00:00 9,8 C 83 % 1008,1 hPa 0,0 l/m N 0,00 h 0 W/m 0,3 km/h (0 Bft)
29.04.2011 01:00 9,0 C 88 % 1007,9 hPa 0,0 l/m S-SO 0,00 h 0 W/m 1,6 km/h (1 Bft)
29.04.2011 02:00 9,2 C 89 % 1007,3 hPa 0,0 l/m N 0,00 h 0 W/m 4,9 km/h (1 Bft)
29.04.2011 03:00 9,0 C 90 % 1007,0 hPa 0,0 l/m N 0,00 h 0 W/m 4,9 km/h (1 Bft)
29.04.2011 04:00 8,0 C 91 % 1006,8 hPa 0,0 l/m N 0,00 h 0 W/m 3,3 km/h (1 Bft)
29.04.2011 05:00 7,1 C 93 % 1006,5 hPa 0,0 l/m N 0,00 h 0 W/m 3,9 km/h (1 Bft)
29.04.2011 06:00 6,6 C 94 % 1006,5 hPa 0,0 l/m N 0,00 h 14 W/m 4,3 km/h (1 Bft)
29.04.2011 07:00 7,0 C 94 % 1006,7 hPa 0,0 l/m N 0,00 h 73 W/m 2,7 km/h (1 Bft)
29.04.2011 08:00 8,6 C 88 % 1006,9 hPa 0,0 l/m O 0,75 h 232 W/m 4,4 km/h (1 Bft)
29.04.2011 09:00 10,1 C 84 % 1007,0 hPa 0,0 l/m O 0,08 h 251 W/m 6,8 km/h (2 Bft)
29.04.2011 10:00 12,0 C 79 % 1006,8 hPa 0,0 l/m O 0,75 h 408 W/m 7,0 km/h (2 Bft)
29.04.2011 11:00 13,2 C 75 % 1006,6 hPa 0,0 l/m O-SO 0,08 h 288 W/m 6,4 km/h (2 Bft)
29.04.2011 12:00 14,2 C 71 % 1006,2 hPa 0,0 l/m SO 0,00 h 261 W/m 7,4 km/h (2 Bft)
29.04.2011 13:00 15,2 C 67 % 1005,7 hPa 0,0 l/m SO 0,08 h 358 W/m 8,3 km/h (2 Bft)
29.04.2011 14:00 16,4 C 61 % 1005,4 hPa 0,0 l/m NO 0,50 h 452 W/m 8,3 km/h (2 Bft)
29.04.2011 15:00 16,1 C 64 % 1005,0 hPa 0,2 l/m W-SW 0,08 h 127 W/m 10,9 km/h (2 Bft)
29.04.2011 16:00 14,1 C 77 % 1004,5 hPa 0,0 l/m W-SW 0,00 h 93 W/m 14,0 km/h (3 Bft)
29.04.2011 17:00 12,9 C 79 % 1005,0 hPa 2,2 l/m O-NO 0,00 h 13 W/m 11,4 km/h (2 Bft)
29.04.2011 18:00 10,8 C 89 % 1004,5 hPa 0,4 l/m W-NW 0,00 h 20 W/m 6,7 km/h (2 Bft)
29.04.2011 19:00 10,5 C 92 % 1004,6 hPa 0,0 l/m S-SO 0,00 h 24 W/m 4,4 km/h (1 Bft)
29.04.2011 20:00 9,5 C 95 % 1004,6 hPa 0,0 l/m N 0,00 h 7 W/m 2,4 km/h (1 Bft)
29.04.2011 21:00 8,8 C 96 % 1005,2 hPa 0,0 l/m W-NW 0,00 h 0 W/m 1,7 km/h (1 Bft)
29.04.2011 22:00 8,7 C 97 % 1005,4 hPa 0,0 l/m W-NW 0,00 h 0 W/m 2,1 km/h (1 Bft)
29.04.2011 23:00 8,5 C 97 % 1005,3 hPa 0,0 l/m N 0,00 h 0 W/m 1,1 km/h (0 Bft)
30.04.2011 00:00 7,7 C 97 % 1005,1 hPa 0,0 l/m W-NW 0,00 h 0 W/m 3,6 km/h (1 Bft)
30.04.2011 01:00 6,9 C 98 % 1005,1 hPa 0,0 l/m N 0,00 h 0 W/m 1,5 km/h (1 Bft)
30.04.2011 02:00 7,1 C 98 % 1004,9 hPa 0,0 l/m W-NW 0,00 h 0 W/m 3,5 km/h (1 Bft)
30.04.2011 03:00 7,2 C 98 % 1004,7 hPa 0,0 l/m N 0,00 h 0 W/m 2,0 km/h (1 Bft)
30.04.2011 04:00 7,0 C 98 % 1004,5 hPa 0,0 l/m N 0,00 h 0 W/m 1,2 km/h (1 Bft)
30.04.2011 05:00 6,5 C 98 % 1004,3 hPa 0,0 l/m N 0,00 h 0 W/m 2,5 km/h (1 Bft)
30.04.2011 06:00 5,7 C 99 % 1004,3 hPa 0,0 l/m N 0,00 h 19 W/m 2,8 km/h (1 Bft)
30.04.2011 07:00 6,0 C 99 % 1004,4 hPa 0,0 l/m W-NW 0,58 h 149 W/m 3,9 km/h (1 Bft)
30.04.2011 08:00 8,1 C 97 % 1004,4 hPa 0,0 l/m N 0,83 h 301 W/m 4,7 km/h (1 Bft)
30.04.2011 09:00 10,3 C 89 % 1004,4 hPa 0,0 l/m O-NO 1,00 h 566 W/m 7,6 km/h (2 Bft)
30.04.2011 10:00 12,3 C 84 % 1004,4 hPa 0,0 l/m N-NO 0,83 h 635 W/m 8,6 km/h (2 Bft)
30.04.2011 11:00 14,2 C 76 % 1004,0 hPa 0,0 l/m NO 0,92 h 797 W/m 11,2 km/h (2 Bft)
30.04.2011 12:00 15,9 C 68 % 1003,7 hPa 0,0 l/m O-NO 1,00 h 903 W/m 15,4 km/h (3 Bft)
30.04.2011 13:00 17,2 C 61 % 1003,4 hPa 0,0 l/m O-NO 0,92 h 855 W/m 16,0 km/h (3 Bft)
30.04.2011 14:00 18,1 C 54 % 1002,7 hPa 0,0 l/m O-NO 0,50 h 479 W/m 17,0 km/h (3 Bft)
30.04.2011 15:00 18,7 C 48 % 1002,3 hPa 0,0 l/m O 0,58 h 532 W/m 18,5 km/h (3 Bft)
30.04.2011 16:00 18,0 C 48 % 1002,1 hPa 0,0 l/m O-NO 0,25 h 231 W/m 17,4 km/h (3 Bft)
30.04.2011 17:00 12,2 C 80 % 1003,1 hPa 3,6 l/m S-SW 0,00 h 21 W/m 13,1 km/h (3 Bft)
30.04.2011 18:00 10,7 C 90 % 1002,5 hPa 0,0 l/m W-SW 0,00 h 39 W/m 3,1 km/h (1 Bft)
30.04.2011 19:00 10,3 C 93 % 1002,4 hPa 0,0 l/m NW 0,00 h 38 W/m 3,5 km/h (1 Bft)
30.04.2011 20:00 9,6 C 95 % 1003,2 hPa 0,0 l/m N-NW 0,00 h 10 W/m 3,9 km/h (1 Bft)
30.04.2011 21:00 8,9 C 96 % 1003,5 hPa 0,0 l/m N-NW 0,00 h 0 W/m 1,5 km/h (1 Bft)
30.04.2011 22:00 9,0 C 97 % 1004,3 hPa 0,0 l/m N-NW 0,00 h 0 W/m 2,5 km/h (1 Bft)
30.04.2011 23:00 9,2 C 95 % 1004,4 hPa 0,0 l/m N-NW 0,00 h 0 W/m 5,3 km/h (1 Bft)
01.05.2011 00:00 8,6 C 96 % 1004,4 hPa 0,0 l/m N 0,00 h 0 W/m 3,7 km/h (1 Bft)
01.05.2011 01:00 8,4 C 97 % 1004,1 hPa 0,0 l/m N 0,00 h 0 W/m 4,3 km/h (1 Bft)
01.05.2011 02:00 8,0 C 97 % 1003,8 hPa 0,0 l/m N 0,00 h 0 W/m 3,9 km/h (1 Bft)
01.05.2011 03:00 7,5 C 98 % 1003,7 hPa 0,0 l/m N 0,00 h 0 W/m 4,4 km/h (1 Bft)
01.05.2011 04:00 7,1 C 98 % 1003,8 hPa 0,2 l/m N 0,00 h 0 W/m 4,0 km/h (1 Bft)
01.05.2011 05:00 6,8 C 98 % 1004,0 hPa 0,0 l/m N 0,00 h 0 W/m 4,7 km/h (1 Bft)
01.05.2011 06:00 6,6 C 98 % 1004,3 hPa 0,0 l/m N 0,17 h 28 W/m 5,1 km/h (1 Bft)
01.05.2011 07:00 7,2 C 98 % 1004,7 hPa 0,0 l/m N 0,00 h 58 W/m 2,9 km/h (1 Bft)
01.05.2011 08:00 8,3 C 97 % 1005,1 hPa 0,0 l/m N 0,00 h 90 W/m 5,3 km/h (1 Bft)
01.05.2011 09:00 10,2 C 91 % 1005,4 hPa 0,0 l/m O-NO 0,58 h 410 W/m 10,2 km/h (2 Bft)
01.05.2011 10:00 13,1 C 79 % 1005,5 hPa 0,0 l/m O-NO 0,67 h 591 W/m 12,9 km/h (3 Bft)
01.05.2011 11:00 14,5 C 70 % 1005,6 hPa 0,0 l/m O-NO 0,42 h 497 W/m 15,8 km/h (3 Bft)
01.05.2011 12:00 14,7 C 69 % 1005,6 hPa 0,0 l/m NO 0,08 h 297 W/m 14,9 km/h (3 Bft)
01.05.2011 13:00 15,5 C 66 % 1005,5 hPa 0,0 l/m NO 0,58 h 644 W/m 17,6 km/h (3 Bft)
01.05.2011 14:00 16,6 C 61 % 1005,2 hPa 0,0 l/m NO 0,42 h 445 W/m 17,3 km/h (3 Bft)
01.05.2011 15:00 17,3 C 55 % 1004,9 hPa 0,0 l/m NO 0,58 h 486 W/m 17,6 km/h (3 Bft)
01.05.2011 16:00 15,5 C 63 % 1005,3 hPa 0,0 l/m O-NO 0,00 h 134 W/m 21,3 km/h (4 Bft)
01.05.2011 17:00 15,6 C 65 % 1005,1 hPa 0,0 l/m O-NO 0,67 h 314 W/m 16,9 km/h (3 Bft)
01.05.2011 18:00 15,8 C 59 % 1005,4 hPa 0,0 l/m O 0,42 h 149 W/m 14,2 km/h (3 Bft)
01.05.2011 19:00 14,2 C 65 % 1005,9 hPa 0,0 l/m O 0,00 h 45 W/m 11,6 km/h (2 Bft)
01.05.2011 20:00 12,4 C 73 % 1006,3 hPa 0,0 l/m O-SO 0,00 h 11 W/m 2,8 km/h (1 Bft)
01.05.2011 21:00 10,3 C 85 % 1006,7 hPa 0,0 l/m N 0,00 h 0 W/m 2,3 km/h (1 Bft)
01.05.2011 22:00 10,0 C 88 % 1006,9 hPa 0,0 l/m N 0,00 h 0 W/m 1,6 km/h (1 Bft)
01.05.2011 23:00 9,8 C 90 % 1006,8 hPa 0,0 l/m N 0,00 h 0 W/m 1,1 km/h (0 Bft)
Min-Datum _ 28.04.11 25.04.11 30.04.11 - - - - 25.04.11
_ Min-Zeit 04:15 18:10 16:20 - - - - 00:00
Minimum _ 2,8 C 29 % 1001,8 hPa - - - - 0,0 km/h (0 Bft)
Max-Datum _ 25.04.11 30.04.11 25.04.11 30.04.11 - 25.04.11 01.05.11 30.04.11
_ Max-Zeit 14:55 22:30 07:50 17:05 - 06:25 13:25 16:55
Maximum _ 20,3 C 100 % 1015,5 hPa 3,6 l/m - 0,08 h 988 W/m 35,4 km/h
O-NO (5 Bft)
Durchschnitt _ 11,3 C 76 % 1009,5 hPa #6,8 l/m NO #42:50 h 309 W/m 8,1 km/h (2 Bft)